Map

Track Data

SID SEASON NUMBER BASIN SUBBASIN NAME ISO_TIME NATURE LAT LON WMO_WIND WMO_PRES WMO_AGENCY TRACK_TYPE DIST2LAND LANDFALL IFLAG USA_AGENCY USA_ATCF_ID USA_LAT USA_LON USA_RECORD USA_STATUS USA_WIND USA_PRES USA_SSHS USA_R34_NE USA_R34_SE USA_R34_SW USA_R34_NW USA_R50_NE USA_R50_SE USA_R50_SW USA_R50_NW USA_R64_NE USA_R64_SE USA_R64_SW USA_R64_NW USA_POCI USA_ROCI USA_RMW USA_EYE TOKYO_LAT TOKYO_LON TOKYO_GRADE TOKYO_WIND TOKYO_PRES TOKYO_R50_DIR TOKYO_R50_LONG TOKYO_R50_SHORT TOKYO_R30_DIR TOKYO_R30_LONG TOKYO_R30_SHORT TOKYO_LAND CMA_LAT CMA_LON CMA_CAT CMA_WIND CMA_PRES HKO_LAT HKO_LON HKO_CAT HKO_WIND HKO_PRES NEWDELHI_LAT NEWDELHI_LON NEWDELHI_GRADE NEWDELHI_WIND NEWDELHI_PRES NEWDELHI_CI NEWDELHI_DP NEWDELHI_POCI REUNION_LAT REUNION_LON REUNION_TYPE REUNION_WIND REUNION_PRES REUNION_TNUM REUNION_CI REUNION_RMW REUNION_R34_NE REUNION_R34_SE REUNION_R34_SW REUNION_R34_NW REUNION_R50_NE REUNION_R50_SE REUNION_R50_SW REUNION_R50_NW REUNION_R64_NE REUNION_R64_SE REUNION_R64_SW REUNION_R64_NW BOM_LAT BOM_LON BOM_TYPE BOM_WIND BOM_PRES BOM_TNUM BOM_CI BOM_RMW BOM_R34_NE BOM_R34_SE BOM_R34_SW BOM_R34_NW BOM_R50_NE BOM_R50_SE BOM_R50_SW BOM_R50_NW BOM_R64_NE BOM_R64_SE BOM_R64_SW BOM_R64_NW BOM_ROCI BOM_POCI BOM_EYE BOM_POS_METHOD BOM_PRES_METHOD NADI_LAT NADI_LON NADI_CAT NADI_WIND NADI_PRES WELLINGTON_LAT WELLINGTON_LON WELLINGTON_WIND WELLINGTON_PRES DS824_LAT DS824_LON DS824_STAGE DS824_WIND DS824_PRES TD9636_LAT TD9636_LON TD9636_STAGE TD9636_WIND TD9636_PRES TD9635_LAT TD9635_LON TD9635_WIND TD9635_PRES TD9635_ROCI NEUMANN_LAT NEUMANN_LON NEUMANN_CLASS NEUMANN_WIND NEUMANN_PRES MLC_LAT MLC_LON MLC_CLASS MLC_WIND MLC_PRES USA_GUST BOM_GUST BOM_GUST_PER REUNION_GUST REUNION_GUST_PER USA_SEAHGT USA_SEARAD_NE USA_SEARAD_SE USA_SEARAD_SW USA_SEARAD_NW STORM_SPEED STORM_DIR
1903291N17126 1903 55 WP MM NOT_NAMED 1903-10-18 04:00:00 NR 17.1000 126.400 main 413 383 __________O___ -1 17.1000 126.400 7 10 300
1903291N17126 1903 55 WP MM NOT_NAMED 1903-10-18 06:00:00 NR 17.2702 126.097 main 384 333 __________P___ -1 17.2702 126.097 7 10 300
1903291N17126 1903 55 WP MM NOT_NAMED 1903-10-18 09:00:00 NR 17.5174 125.649 main 333 297 __________P___ -1 17.5174 125.649 7 10 300
1903291N17126 1903 55 WP MM NOT_NAMED 1903-10-18 12:00:00 NR 17.7453 125.221 main 297 263 __________P___ -1 17.7453 125.221 7 9 298
1903291N17126 1903 55 WP MM NOT_NAMED 1903-10-18 15:00:00 NR 17.9428 124.823 main 263 255 __________P___ -1 17.9428 124.823 7 8 297
1903291N17126 1903 55 WP MM NOT_NAMED 1903-10-18 16:00:00 NR 18.0000 124.700 main 255 233 __________O___ -1 18.0000 124.700 3 7 295
1903291N17126 1903 55 WP MM NOT_NAMED 1903-10-18 18:00:00 NR 18.1001 124.468 main 233 200 __________P___ -1 18.1001 124.468 3 7 293
1903291N17126 1903 55 WP MM NOT_NAMED 1903-10-18 21:00:00 NR 18.2192 124.153 main 200 168 __________P___ -1 18.2192 124.153 3 6 290
1903291N17126 1903 55 WP MM NOT_NAMED 1903-10-19 00:00:00 NR 18.3092 123.865 main 168 137 __________P___ -1 18.3092 123.865 3 6 287
1903291N17126 1903 55 WP MM NOT_NAMED 1903-10-19 03:00:00 NR 18.3794 123.590 main 137 126 __________P___ -1 18.3794 123.590 3 5 285
1903291N17126 1903 55 WP MM NOT_NAMED 1903-10-19 04:00:00 NR 18.4000 123.500 main 126 105 __________O___ -1 18.4000 123.500 4 6 284
1903291N17126 1903 55 WP MM NOT_NAMED 1903-10-19 06:00:00 NR 18.4473 123.306 main 105 74 __________P___ -1 18.4473 123.306 4 6 283
1903291N17126 1903 55 WP MM NOT_NAMED 1903-10-19 09:00:00 NR 18.5058 123.020 main 74 47 __________P___ -1 18.5058 123.020 4 5 281
1903291N17126 1903 55 WP MM NOT_NAMED 1903-10-19 12:00:00 NR 18.5520 122.745 main 47 30 __________P___ -1 18.5520 122.745 4 5 279
1903291N17126 1903 55 WP MM NOT_NAMED 1903-10-19 15:00:00 NR 18.5891 122.484 main 30 24 __________P___ -1 18.5891 122.484 4 5 278
1903291N17126 1903 55 WP MM NOT_NAMED 1903-10-19 16:00:00 NR 18.6000 122.400 main 24 22 __________O___ -1 18.6000 122.400 4 5 279
1903291N17126 1903 55 WP MM NOT_NAMED 1903-10-19 18:00:00 NR 18.6248 122.244 main 22 22 __________P___ -1 18.6248 122.244 4 4 279
1903291N17126 1903 55 WP MM NOT_NAMED 1903-10-19 21:00:00 NR 18.6559 122.022 main 35 35 __________P___ -1 18.6559 122.022 4 4 278
1903291N17126 1903 55 WP MM NOT_NAMED 1903-10-20 00:00:00 NR 18.6797 121.805 main 39 30 __________P___ -1 18.6797 121.805 4 4 275
1903291N17126 1903 55 WP MM NOT_NAMED 1903-10-20 03:00:00 NR 18.6962 121.579 main 30 24 __________P___ -1 18.6962 121.579 4 4 274
1903291N17126 1903 55 WP MM NOT_NAMED 1903-10-20 04:00:00 NR 18.7000 121.500 main 24 22 __________O___ -1 18.7000 121.500 4 5 272
1903291N17126 1903 55 WP MM NOT_NAMED 1903-10-20 06:00:00 NR 18.7031 121.325 main 22 22 __________P___ -1 18.7031 121.325 4 5 270
1903291N17126 1903 55 WP MM NOT_NAMED 1903-10-20 09:00:00 NR 18.7014 121.051 main 22 11 __________P___ -1 18.7014 121.051 4 5 269
1903291N17126 1903 55 WP MM NOT_NAMED 1903-10-20 12:00:00 NR 18.6975 120.770 main 11 11 __________P___ -1 18.6975 120.770 4 5 270
1903291N17126 1903 55 WP MM NOT_NAMED 1903-10-20 15:00:00 NR 18.6979 120.491 main 33 33 __________P___ -1 18.6979 120.491 4 5 270
1903291N17126 1903 55 WP MM NOT_NAMED 1903-10-20 16:00:00 NR 18.7000 120.400 main 39 39 __________O___ -1 18.7000 120.400 4 5 274
1903291N17126 1903 55 WP MM NOT_NAMED 1903-10-20 18:00:00 NR 18.7132 120.249 main 53 53 __________P___ -1 18.7132 120.249 4 4 276
1903291N17126 1903 55 WP MM NOT_NAMED 1903-10-20 21:00:00 NR 18.7396 120.028 main 71 71 __________P___ -1 18.7396 120.028 4 4 277
1903291N17126 1903 55 WP MM NOT_NAMED 1903-10-21 00:00:00 NR 18.7684 119.791 main 95 95 __________P___ -1 18.7684 119.791 4 5 276
1903291N17126 1903 55 WP MM NOT_NAMED 1903-10-21 03:00:00 NR 18.7935 119.509 main 124 124 __________P___ -1 18.7935 119.509 4 6 275
1903291N17126 1903 55 WP MM NOT_NAMED 1903-10-21 04:00:00 NR 18.8000 119.400 main 134 134 __________O___ -1 18.8000 119.400 4 7 272
1903291N17126 1903 55 WP MM NOT_NAMED 1903-10-21 06:00:00 NR 18.8085 119.143 main 164 164 __________P___ -1 18.8085 119.143 4 8 271
1903291N17126 1903 55 WP MM NOT_NAMED 1903-10-21 09:00:00 NR 18.8150 118.707 main 205 205 __________P___ -1 18.8150 118.707 4 9 270
1903291N17126 1903 55 WP MM NOT_NAMED 1903-10-21 12:00:00 NR 18.8136 118.236 main 254 254 __________P___ -1 18.8136 118.236 4 9 269
1903291N17126 1903 55 WP MM NOT_NAMED 1903-10-21 15:00:00 NR 18.8046 117.757 main 295 305 __________P___ -1 18.8046 117.757 4 9 269
1903291N17126 1903 55 WP MM NOT_NAMED 1903-10-21 16:00:00 NR 18.8000 117.600 main 315 315 __________O___ -1 18.8000 117.600 4 9 268
1903291N17126 1903 55 WP MM NOT_NAMED 1903-10-21 18:00:00 NR 18.7916 117.300 main 344 344 __________P___ -1 18.7916 117.300 4 8 268
1903291N17126 1903 55 WP MM NOT_NAMED 1903-10-21 21:00:00 NR 18.7728 116.857 main 383 393 __________P___ -1 18.7728 116.857 4 8 267
1903291N17126 1903 55 WP MM NOT_NAMED 1903-10-22 00:00:00 NR 18.7466 116.430 main 430 430 __________P___ -1 18.7466 116.430 4 8 266
1903291N17126 1903 55 WP MM NOT_NAMED 1903-10-22 03:00:00 NR 18.7129 116.027 main 439 435 __________P___ -1 18.7129 116.027 4 8 265
1903291N17126 1903 55 WP MM NOT_NAMED 1903-10-22 04:00:00 NR 18.7000 115.900 main 435 428 __________O___ -1 18.7000 115.900 4 7 263
1903291N17126 1903 55 WP MM NOT_NAMED 1903-10-22 06:00:00 NR 18.6694 115.660 main 428 421 __________P___ -1 18.6694 115.660 4 7 261
1903291N17126 1903 55 WP MM NOT_NAMED 1903-10-22 09:00:00 NR 18.6175 115.326 main 426 420 __________P___ -1 18.6175 115.326 4 6 260
1903291N17126 1903 55 WP MM NOT_NAMED 1903-10-22 12:00:00 NR 18.5637 115.012 main 420 407 __________P___ -1 18.5637 115.012 4 6 260
1903291N17126 1903 55 WP MM NOT_NAMED 1903-10-22 15:00:00 NR 18.5144 114.703 main 407 397 __________P___ -1 18.5144 114.703 4 6 261
1903291N17126 1903 55 WP MM NOT_NAMED 1903-10-22 16:00:00 NR 18.5000 114.600 main 397 377 __________O___ -1 18.5000 114.600 4 6 263
1903291N17126 1903 55 WP MM NOT_NAMED 1903-10-22 18:00:00 NR 18.4800 114.394 main 377 348 __________P___ -1 18.4800 114.394 4 6 265
1903291N17126 1903 55 WP MM NOT_NAMED 1903-10-22 21:00:00 NR 18.4565 114.085 main 348 323 __________P___ -1 18.4565 114.085 4 6 266
1903291N17126 1903 55 WP MM NOT_NAMED 1903-10-23 00:00:00 NR 18.4353 113.765 main 323 285 __________P___ -1 18.4353 113.765 4 6 266
1903291N17126 1903 55 WP MM NOT_NAMED 1903-10-23 03:00:00 NR 18.4103 113.422 main 285 276 __________P___ -1 18.4103 113.422 4 7 265
1903291N17126 1903 55 WP MM NOT_NAMED 1903-10-23 04:00:00 NR 18.4000 113.300 main 276 249 __________O___ -1 18.4000 113.300 4 7 265
1903291N17126 1903 55 WP MM NOT_NAMED 1903-10-23 06:00:00 NR 18.3751 113.032 main 249 222 __________P___ -1 18.3751 113.032 4 8 264
1903291N17126 1903 55 WP MM NOT_NAMED 1903-10-23 09:00:00 NR 18.3315 112.604 main 222 185 __________P___ -1 18.3315 112.604 4 8 263
1903291N17126 1903 55 WP MM NOT_NAMED 1903-10-23 12:00:00 NR 18.2802 112.165 main 185 143 __________P___ -1 18.2802 112.165 4 8 262
1903291N17126 1903 55 WP MM NOT_NAMED 1903-10-23 15:00:00 NR 18.2213 111.737 main 143 134 __________P___ -1 18.2213 111.737 4 8 261
1903291N17126 1903 55 WP MM NOT_NAMED 1903-10-23 16:00:00 NR 18.2000 111.600 main 134 116 __________O___ -1 18.2000 111.600 4 7 260
1903291N17126 1903 55 WP MM NOT_NAMED 1903-10-23 18:00:00 NR 18.1578 111.363 main 116 92 __________P___ -1 18.1578 111.363 4 7 258
1903291N17126 1903 55 WP MM NOT_NAMED 1903-10-23 21:00:00 NR 18.0887 111.026 main 92 84 __________P___ -1 18.0887 111.026 4 7 257
1903291N17126 1903 55 WP MM NOT_NAMED 1903-10-24 00:00:00 NR 18.0125 110.690 main 84 61 __________P___ -1 18.0125 110.690 4 7 256
1903291N17126 1903 55 WP MM NOT_NAMED 1903-10-24 03:00:00 NR 17.9293 110.330 main 64 59 __________P___ -1 17.9293 110.330 4 7 256
1903291N17126 1903 55 WP MM NOT_NAMED 1903-10-24 04:00:00 NR 17.9000 110.200 main 59 46 __________O___ -1 17.9000 110.200 4 8 257
1903291N17126 1903 55 WP MM NOT_NAMED 1903-10-24 06:00:00 NR 17.8364 109.912 main 49 44 __________P___ -1 17.8364 109.912 4 9 257
1903291N17126 1903 55 WP MM NOT_NAMED 1903-10-24 09:00:00 NR 17.7347 109.448 main 56 56 __________P___ -1 17.7347 109.448 4 9 257
1903291N17126 1903 55 WP MM NOT_NAMED 1903-10-24 12:00:00 NR 17.6309 108.960 main 85 90 __________P___ -1 17.6309 108.960 4 10 258
1903291N17126 1903 55 WP MM NOT_NAMED 1903-10-24 15:00:00 NR 17.5312 108.464 main 113 116 __________P___ -1 17.5312 108.464 4 10 258
1903291N17126 1903 55 WP MM NOT_NAMED 1903-10-24 16:00:00 NR 17.5000 108.300 main 119 99 __________O___ -1 17.5000 108.300 4 10 259
1903291N17126 1903 55 WP MM NOT_NAMED 1903-10-24 18:00:00 NR 17.4417 107.975 main 99 54 __________P___ -1 17.4417 107.975 4 9 260
1903291N17126 1903 55 WP MM NOT_NAMED 1903-10-24 21:00:00 NR 17.3627 107.496 main 54 15 __________P___ -1 17.3627 107.496 4 9 261
1903291N17126 1903 55 WP MM NOT_NAMED 1903-10-25 00:00:00 NR 17.2908 107.023 main 15 0 __________P___ -1 17.2908 107.023 4 9 261
1903291N17126 1903 55 WP MM NOT_NAMED 1903-10-25 03:00:00 NR 17.2226 106.556 main 0 0 __________P___ -1 17.2226 106.556 4 9 261
1903291N17126 1903 55 WP MM NOT_NAMED 1903-10-25 04:00:00 NR 17.2000 106.400 main 0 __________O___ -1 17.2000 106.400 7 9 261

Digital Typhoon Data and Search

About IBTrACS Database

This database is a web-friendly format of International Best Track Archive for Climate Stewardship (IBTrACS), a global best track data archive curated by NOAA dating back to 1842.

Updated: 2021-12-06